createdAt,value
2019-03-18T00:01:09.810Z,54.35
2019-03-18T00:03:38.257Z,54.39
2019-03-18T00:06:06.334Z,54.41
2019-03-18T00:08:34.408Z,54.41
2019-03-18T00:11:02.770Z,54.43
2019-03-18T00:13:31.209Z,54.43
2019-03-18T00:15:59.257Z,54.44
2019-03-18T00:18:27.485Z,54.45
2019-03-18T00:20:55.569Z,54.49
2019-03-18T00:23:23.925Z,54.50
2019-03-18T00:25:52.080Z,54.52
2019-03-18T00:28:20.120Z,54.55
2019-03-18T00:30:48.308Z,54.58
2019-03-18T00:33:16.351Z,54.59
2019-03-18T00:35:44.715Z,54.62
2019-03-18T00:38:13.010Z,54.64
2019-03-18T00:40:41.090Z,54.65
2019-03-18T00:43:09.142Z,54.67
2019-03-18T00:45:40.146Z,54.68
2019-03-18T00:48:07.183Z,54.72
2019-03-18T00:50:35.255Z,54.74
2019-03-18T00:53:03.276Z,54.75
2019-03-18T00:55:31.322Z,54.79
2019-03-18T00:57:59.371Z,54.78
2019-03-18T01:00:27.477Z,54.77
2019-03-18T01:02:55.570Z,54.78
2019-03-18T01:05:23.732Z,54.79
2019-03-18T01:07:52.248Z,54.81
2019-03-18T01:10:20.408Z,54.84
2019-03-18T01:12:48.438Z,54.87
2019-03-18T01:15:27.417Z,54.91
2019-03-18T01:17:46.402Z,54.95
2019-03-18T01:20:14.714Z,54.98
2019-03-18T01:22:44.031Z,54.99
2019-03-18T01:25:12.101Z,55.01
2019-03-18T01:27:41.913Z,55.02
2019-03-18T01:30:09.984Z,55.04
2019-03-18T01:32:38.067Z,55.04
2019-03-18T01:35:07.192Z,55.08
2019-03-18T01:37:35.197Z,55.12
2019-03-18T01:40:04.449Z,55.13
2019-03-18T01:42:32.484Z,55.18
2019-03-18T01:45:00.618Z,55.19
2019-03-18T01:47:28.709Z,55.22
2019-03-18T01:49:56.753Z,55.26
2019-03-18T01:52:25.238Z,55.33
2019-03-18T01:54:53.295Z,55.37
2019-03-18T01:57:21.328Z,55.41
2019-03-18T01:59:50.538Z,55.43
2019-03-18T02:02:18.582Z,55.46
2019-03-18T02:04:46.667Z,55.50
2019-03-18T02:07:15.049Z,55.51
2019-03-18T02:09:44.207Z,55.53
2019-03-18T02:12:13.953Z,55.56
2019-03-18T02:14:42.065Z,55.59
2019-03-18T02:17:10.483Z,55.59
2019-03-18T02:19:40.364Z,55.64
2019-03-18T02:22:08.464Z,55.68
2019-03-18T02:24:36.857Z,55.75
2019-03-18T02:27:05.160Z,55.79
2019-03-18T02:29:33.781Z,55.79
2019-03-18T02:32:02.297Z,55.80
2019-03-18T02:34:31.418Z,55.87
2019-03-18T02:36:59.737Z,55.92
2019-03-18T02:39:28.038Z,55.93
2019-03-18T02:41:56.123Z,55.98
2019-03-18T02:44:25.104Z,55.99
2019-03-18T02:46:53.154Z,56.00
2019-03-18T02:49:21.227Z,55.97
2019-03-18T02:51:52.770Z,55.96
2019-03-18T02:54:19.598Z,55.95
2019-03-18T02:56:48.895Z,55.96
2019-03-18T02:59:17.592Z,55.99
2019-03-18T03:01:45.646Z,56.00
2019-03-18T03:04:14.694Z,56.02
2019-03-18T03:06:42.751Z,56.02
2019-03-18T03:09:10.917Z,56.03
2019-03-18T03:11:39.165Z,56.05
2019-03-18T03:14:07.319Z,56.10
2019-03-18T03:16:35.636Z,56.10
2019-03-18T03:19:03.699Z,56.11
2019-03-18T03:21:32.374Z,56.10
2019-03-18T03:24:00.547Z,56.14
2019-03-18T03:26:28.701Z,56.14
2019-03-18T03:28:56.742Z,56.17
2019-03-18T03:31:24.844Z,56.17
2019-03-18T03:33:52.875Z,56.18
2019-03-18T03:36:21.938Z,56.21
2019-03-18T03:38:50.036Z,56.20
2019-03-18T03:41:18.708Z,56.18
2019-03-18T03:43:47.402Z,56.19
2019-03-18T03:46:15.505Z,56.22
2019-03-18T03:48:43.547Z,56.19
2019-03-18T03:51:11.896Z,56.20
2019-03-18T03:53:39.944Z,56.26
2019-03-18T03:56:08.215Z,56.26
2019-03-18T03:58:36.535Z,56.26
2019-03-18T04:01:04.638Z,56.27
2019-03-18T04:03:38.744Z,56.28
2019-03-18T04:06:03.369Z,56.32
2019-03-18T04:08:31.973Z,56.31
2019-03-18T04:11:00.152Z,56.35
2019-03-18T04:13:28.271Z,56.34
2019-03-18T04:15:57.353Z,56.35
2019-03-18T04:18:25.408Z,56.33
2019-03-18T04:20:53.460Z,56.36
2019-03-18T04:23:21.541Z,56.35
2019-03-18T04:25:49.596Z,56.33
2019-03-18T04:28:17.640Z,56.33
2019-03-18T04:30:45.722Z,56.33
2019-03-18T04:33:14.179Z,56.35
2019-03-18T04:35:43.978Z,56.40
2019-03-18T04:38:12.088Z,56.43
2019-03-18T04:40:40.232Z,56.48
2019-03-18T04:43:08.329Z,56.48
2019-03-18T04:45:36.379Z,56.50
2019-03-18T04:48:04.469Z,56.49
2019-03-18T04:50:32.505Z,56.52
2019-03-18T04:53:01.047Z,56.54
2019-03-18T04:55:29.083Z,56.54
2019-03-18T04:57:57.495Z,56.56
2019-03-18T05:00:25.854Z,56.56
2019-03-18T05:02:54.017Z,56.56
2019-03-18T05:05:22.061Z,56.56
2019-03-18T05:07:50.102Z,56.58
2019-03-18T05:10:18.119Z,56.58
2019-03-18T05:12:46.491Z,56.57
2019-03-18T05:15:14.556Z,56.57
2019-03-18T05:17:42.608Z,56.57
2019-03-18T05:20:10.683Z,56.60
2019-03-18T05:22:38.737Z,56.63
2019-03-18T05:25:07.015Z,56.65
2019-03-18T05:27:36.084Z,56.64
2019-03-18T05:30:04.636Z,56.63
2019-03-18T05:32:32.678Z,56.65
2019-03-18T05:35:01.059Z,56.64
2019-03-18T05:37:29.384Z,56.66
2019-03-18T05:39:57.677Z,56.65
2019-03-18T05:42:26.055Z,56.66
2019-03-18T05:44:54.475Z,56.64
2019-03-18T05:47:22.572Z,56.70
2019-03-18T05:49:50.658Z,56.70
2019-03-18T05:52:18.695Z,56.76
2019-03-18T05:54:47.000Z,56.79
2019-03-18T05:57:15.122Z,56.79
2019-03-18T05:59:43.461Z,56.81
2019-03-18T06:02:11.797Z,56.82
2019-03-18T06:04:39.850Z,56.81
2019-03-18T06:07:07.891Z,56.81
2019-03-18T06:09:36.237Z,56.82
2019-03-18T06:12:04.669Z,56.86
2019-03-18T06:14:32.750Z,56.87
2019-03-18T06:17:01.133Z,56.87
2019-03-18T06:19:29.589Z,56.91
2019-03-18T06:21:57.655Z,56.94
2019-03-18T06:24:26.066Z,56.92
2019-03-18T06:26:54.064Z,56.91
2019-03-18T06:29:22.135Z,56.89
2019-03-18T06:31:50.531Z,56.89
2019-03-18T06:34:18.561Z,56.92
2019-03-18T06:36:46.874Z,56.90
2019-03-18T06:39:15.207Z,56.92
2019-03-18T06:41:43.216Z,56.91
2019-03-18T06:44:11.267Z,56.93
2019-03-18T06:46:39.911Z,56.93
2019-03-18T06:49:07.974Z,56.94
2019-03-18T06:51:36.296Z,56.98
2019-03-18T06:54:04.349Z,56.98
2019-03-18T06:56:32.385Z,56.99
2019-03-18T06:59:00.692Z,57.00
2019-03-18T07:01:28.737Z,57.03
2019-03-18T07:03:58.286Z,57.02
2019-03-18T07:06:26.411Z,57.04
2019-03-18T07:08:54.502Z,57.06
2019-03-18T07:11:22.821Z,57.09
2019-03-18T07:13:50.905Z,57.06
2019-03-18T07:16:19.024Z,57.11
2019-03-18T07:18:47.087Z,57.09
2019-03-18T07:21:15.116Z,57.08
2019-03-18T07:23:44.166Z,57.10
2019-03-18T07:26:12.192Z,57.11
2019-03-18T07:28:40.302Z,57.11
2019-03-18T07:31:08.340Z,57.11
2019-03-18T07:33:36.389Z,57.08
2019-03-18T07:36:04.419Z,57.05
2019-03-18T07:38:32.479Z,57.09
2019-03-18T07:41:00.514Z,57.08
2019-03-18T07:43:28.593Z,57.06
2019-03-18T07:45:56.625Z,57.05
2019-03-18T07:48:30.749Z,57.04
2019-03-18T07:50:54.652Z,57.06
2019-03-18T07:53:22.751Z,57.06
2019-03-18T07:55:51.226Z,57.08
2019-03-18T07:58:22.230Z,57.10
2019-03-18T08:00:49.895Z,57.15
2019-03-18T08:03:18.117Z,57.16
2019-03-18T08:05:46.468Z,57.21
2019-03-18T08:08:14.540Z,57.22
2019-03-18T08:10:42.594Z,57.23
2019-03-18T08:13:10.708Z,57.21
2019-03-18T08:15:38.751Z,57.19
2019-03-18T08:18:06.833Z,57.14
2019-03-18T08:20:34.867Z,57.11
2019-03-18T08:23:02.907Z,57.11
2019-03-18T08:25:30.935Z,57.11
2019-03-18T08:27:58.993Z,57.07
2019-03-18T08:30:27.003Z,57.06
2019-03-18T08:32:55.061Z,57.07
2019-03-18T08:35:23.407Z,57.09
2019-03-18T08:37:51.506Z,57.19
2019-03-18T08:40:19.549Z,57.26
2019-03-18T08:42:47.667Z,57.31
2019-03-18T08:45:16.059Z,57.36
2019-03-18T08:47:44.197Z,57.35
2019-03-18T08:50:12.863Z,57.34
2019-03-18T08:52:41.152Z,57.32
2019-03-18T08:55:09.228Z,57.32
2019-03-18T08:57:37.261Z,57.30
2019-03-18T09:00:07.189Z,57.29
2019-03-18T09:02:35.226Z,57.22
2019-03-18T09:05:03.691Z,57.22
2019-03-18T09:07:31.720Z,57.19
2019-03-18T09:09:59.786Z,57.19
2019-03-18T09:12:27.868Z,57.22
2019-03-18T09:14:56.248Z,57.23
2019-03-18T09:17:24.289Z,57.22
2019-03-18T09:19:52.903Z,57.26
2019-03-18T09:22:22.471Z,57.28
2019-03-18T09:24:51.097Z,57.26
2019-03-18T09:27:19.108Z,57.28
2019-03-18T09:29:47.247Z,57.34
2019-03-18T09:32:15.349Z,57.40
2019-03-18T09:34:43.650Z,57.43
2019-03-18T09:37:11.683Z,57.47
2019-03-18T09:39:39.762Z,57.48
2019-03-18T09:42:07.830Z,57.54
2019-03-18T09:44:35.904Z,57.56
2019-03-18T09:47:03.964Z,57.58
2019-03-18T09:49:32.030Z,57.58
2019-03-18T09:52:01.102Z,57.53
2019-03-18T09:54:32.228Z,57.46
2019-03-18T09:57:06.229Z,57.32
2019-03-18T09:59:34.286Z,57.18
2019-03-18T10:02:02.319Z,57.04
2019-03-18T10:04:30.392Z,56.97
2019-03-18T10:06:58.410Z,56.95
2019-03-18T10:09:26.522Z,56.88
2019-03-18T10:11:54.861Z,56.79
2019-03-18T10:14:22.928Z,56.81
2019-03-18T10:16:51.555Z,56.81
2019-03-18T10:19:19.615Z,56.71
2019-03-18T10:21:47.639Z,56.57
2019-03-18T10:24:15.714Z,56.45
2019-03-18T10:26:44.035Z,56.41
2019-03-18T10:29:12.133Z,56.33
2019-03-18T10:31:41.563Z,56.22
2019-03-18T10:34:09.886Z,56.17
2019-03-18T10:36:37.984Z,56.09
2019-03-18T10:39:06.983Z,56.05
2019-03-18T10:41:35.039Z,56.01
2019-03-18T10:44:05.885Z,56.00
2019-03-18T10:46:34.913Z,55.99
2019-03-18T10:49:02.987Z,55.93
2019-03-18T10:51:34.558Z,55.79
2019-03-18T10:54:02.863Z,55.76
2019-03-18T10:56:30.959Z,55.76
2019-03-18T10:58:59.047Z,55.73
2019-03-18T11:01:27.196Z,55.82
2019-03-18T11:03:55.258Z,55.81
2019-03-18T11:06:23.943Z,55.84
2019-03-18T11:08:52.487Z,55.85
2019-03-18T11:11:20.548Z,55.79
2019-03-18T11:13:48.718Z,55.71
2019-03-18T11:16:16.911Z,55.56
2019-03-18T11:18:46.749Z,55.52
2019-03-18T11:21:14.809Z,55.53
2019-03-18T11:23:43.208Z,55.43
2019-03-18T11:26:11.350Z,55.39
2019-03-18T11:28:39.511Z,55.27
2019-03-18T11:31:08.019Z,55.21
2019-03-18T11:33:36.060Z,55.06
2019-03-18T11:36:04.165Z,54.79
2019-03-18T11:38:32.219Z,54.49
2019-03-18T11:41:00.282Z,54.21
2019-03-18T11:43:28.300Z,54.01
2019-03-18T11:45:56.609Z,53.88
2019-03-18T11:48:25.045Z,53.73
2019-03-18T11:50:53.899Z,53.66
2019-03-18T11:53:22.869Z,53.56
2019-03-18T11:55:50.903Z,53.29
2019-03-18T11:58:18.935Z,53.07
2019-03-18T12:00:47.036Z,52.87
2019-03-18T12:03:17.193Z,52.80
2019-03-18T12:05:45.285Z,52.79
2019-03-18T12:08:13.336Z,52.74
2019-03-18T12:10:41.450Z,52.78
2019-03-18T12:13:09.861Z,52.89
2019-03-18T12:15:38.188Z,52.98
2019-03-18T12:18:07.204Z,53.11
2019-03-18T12:20:35.583Z,53.23
2019-03-18T12:23:03.940Z,53.34
2019-03-18T12:25:33.832Z,53.45
2019-03-18T12:28:04.934Z,53.48
2019-03-18T12:30:32.054Z,53.48
2019-03-18T12:33:00.104Z,53.42
2019-03-18T12:35:28.290Z,53.36
2019-03-18T12:37:56.354Z,53.34
2019-03-18T12:40:24.402Z,53.39
2019-03-18T12:42:52.967Z,53.57
2019-03-18T12:45:21.118Z,53.60
2019-03-18T12:47:50.326Z,53.50
2019-03-18T12:50:18.580Z,53.57
2019-03-18T12:52:46.886Z,53.52
2019-03-18T12:55:14.933Z,53.42
2019-03-18T12:57:42.965Z,53.34
2019-03-18T13:00:17.518Z,53.28
2019-03-18T13:02:46.678Z,53.14
2019-03-18T13:05:14.717Z,53.02
2019-03-18T13:07:42.870Z,52.85
2019-03-18T13:10:12.793Z,52.75
2019-03-18T13:12:40.843Z,52.73
2019-03-18T13:15:11.408Z,52.73
2019-03-18T13:17:39.447Z,52.82
2019-03-18T13:20:09.139Z,52.88
2019-03-18T13:22:37.188Z,52.91
2019-03-18T13:25:05.600Z,52.87
2019-03-18T13:27:33.682Z,52.81
2019-03-18T13:30:02.095Z,52.72
2019-03-18T13:32:30.171Z,52.71
2019-03-18T13:34:58.238Z,52.63
2019-03-18T13:37:26.295Z,52.52
2019-03-18T13:39:55.300Z,52.48
2019-03-18T13:42:23.367Z,52.33
2019-03-18T13:44:51.387Z,52.29
2019-03-18T13:47:19.452Z,52.26
2019-03-18T13:49:47.481Z,52.20
2019-03-18T13:52:15.529Z,52.27
2019-03-18T13:54:43.573Z,52.46
2019-03-18T13:57:11.713Z,52.68
2019-03-18T13:59:39.746Z,52.80
2019-03-18T14:02:07.808Z,52.84
2019-03-18T14:04:35.900Z,52.87
2019-03-18T14:07:04.201Z,52.87
2019-03-18T14:09:32.559Z,52.75
2019-03-18T14:12:00.628Z,52.60
2019-03-18T14:14:28.789Z,52.48
2019-03-18T14:16:56.933Z,52.31
2019-03-18T14:19:24.956Z,52.14
2019-03-18T14:21:53.057Z,51.99
2019-03-18T14:24:21.095Z,51.71
2019-03-18T14:26:49.126Z,51.26
2019-03-18T14:29:17.473Z,50.93
2019-03-18T14:31:46.662Z,50.68
2019-03-18T14:34:15.188Z,50.50
2019-03-18T14:36:43.250Z,50.37
2019-03-18T14:39:11.282Z,50.30
2019-03-18T14:41:39.607Z,50.33
2019-03-18T14:44:07.664Z,50.31
2019-03-18T14:46:35.709Z,50.30
2019-03-18T14:49:03.771Z,50.29
2019-03-18T14:51:31.803Z,50.30
2019-03-18T14:53:59.898Z,50.32
2019-03-18T14:56:27.933Z,50.36
2019-03-18T14:58:56.079Z,50.57
2019-03-18T15:01:24.105Z,50.62
2019-03-18T15:03:52.163Z,50.88
2019-03-18T15:06:20.223Z,50.77
2019-03-18T15:08:48.287Z,50.60
2019-03-18T15:11:16.320Z,50.68
2019-03-18T15:13:44.370Z,50.70
2019-03-18T15:16:12.376Z,50.65
2019-03-18T15:18:40.417Z,50.53
2019-03-18T15:21:08.455Z,50.36
2019-03-18T15:23:36.593Z,50.26
2019-03-18T15:26:05.247Z,50.19
2019-03-18T15:28:33.558Z,50.14
2019-03-18T15:31:02.575Z,50.14
2019-03-18T15:33:30.940Z,50.18
2019-03-18T15:35:59.217Z,50.11
2019-03-18T15:38:27.336Z,50.08
2019-03-18T15:40:56.252Z,50.11
2019-03-18T15:43:24.301Z,50.19
2019-03-18T15:45:52.667Z,50.18
2019-03-18T15:48:21.088Z,50.15
2019-03-18T15:50:49.964Z,50.12
2019-03-18T15:53:18.019Z,50.15
2019-03-18T15:55:46.213Z,50.27
2019-03-18T15:58:14.256Z,50.27
2019-03-18T16:00:42.301Z,50.17
2019-03-18T16:03:10.372Z,50.13
2019-03-18T16:05:38.466Z,50.17
2019-03-18T16:08:06.648Z,50.18
2019-03-18T16:10:34.684Z,50.15
2019-03-18T16:13:03.061Z,50.06
2019-03-18T16:15:31.508Z,50.14
2019-03-18T16:17:59.925Z,50.17
2019-03-18T16:20:28.036Z,50.21
2019-03-18T16:22:56.567Z,50.15
2019-03-18T16:25:24.817Z,50.17
2019-03-18T16:27:53.128Z,50.16
2019-03-18T16:30:23.338Z,50.24
2019-03-18T16:32:51.533Z,50.23
2019-03-18T16:35:19.682Z,50.32
2019-03-18T16:37:48.080Z,50.40
2019-03-18T16:40:16.160Z,50.31
2019-03-18T16:42:44.512Z,50.38
2019-03-18T16:45:13.143Z,50.44
2019-03-18T16:47:41.169Z,50.48
2019-03-18T16:50:11.935Z,50.57
2019-03-18T16:52:40.123Z,50.68
2019-03-18T16:55:08.361Z,50.84
2019-03-18T16:57:36.781Z,50.88
2019-03-18T17:00:05.609Z,50.88
2019-03-18T17:02:34.946Z,50.87
2019-03-18T17:05:03.211Z,50.82
2019-03-18T17:07:32.310Z,50.81
2019-03-18T17:10:00.940Z,50.80
2019-03-18T17:12:28.952Z,50.79
2019-03-18T17:14:57.101Z,50.83
2019-03-18T17:17:25.594Z,50.86
2019-03-18T17:19:53.631Z,50.91
2019-03-18T17:22:22.012Z,50.94
2019-03-18T17:24:51.161Z,50.91
2019-03-18T17:27:19.646Z,50.90
2019-03-18T17:29:47.692Z,50.90
2019-03-18T17:32:15.715Z,50.91
2019-03-18T17:34:43.830Z,50.94
2019-03-18T17:37:11.944Z,50.96
2019-03-18T17:39:40.045Z,50.98
2019-03-18T17:42:08.532Z,50.99
2019-03-18T17:44:36.617Z,51.01
2019-03-18T17:47:07.333Z,51.02
2019-03-18T17:49:35.198Z,51.06
2019-03-18T17:52:03.307Z,51.09
2019-03-18T17:54:31.457Z,51.18
2019-03-18T17:57:07.313Z,51.25
2019-03-18T17:59:32.538Z,51.33
2019-03-18T18:02:01.151Z,51.40
2019-03-18T18:04:29.332Z,51.46
2019-03-18T18:06:57.425Z,51.53
2019-03-18T18:09:25.612Z,51.59
2019-03-18T18:11:53.641Z,51.64
2019-03-18T18:14:22.074Z,51.69
2019-03-18T18:16:50.212Z,51.68
2019-03-18T18:19:18.327Z,51.69
2019-03-18T18:21:46.381Z,51.69
2019-03-18T18:24:15.179Z,51.66
2019-03-18T18:26:43.783Z,51.61
2019-03-18T18:29:12.257Z,51.59
2019-03-18T18:31:40.315Z,51.53
2019-03-18T18:34:08.495Z,51.53
2019-03-18T18:36:36.565Z,51.51
2019-03-18T18:39:06.770Z,51.50
2019-03-18T18:41:34.835Z,51.51
2019-03-18T18:44:03.542Z,51.51
2019-03-18T18:46:31.581Z,51.52
2019-03-18T18:48:59.634Z,51.52
2019-03-18T18:51:27.687Z,51.53
2019-03-18T18:53:55.833Z,51.54
2019-03-18T18:56:23.940Z,51.60
2019-03-18T18:58:51.969Z,51.63
2019-03-18T19:01:20.052Z,51.70
2019-03-18T19:03:48.110Z,51.80
2019-03-18T19:06:16.376Z,51.89
2019-03-18T19:08:44.813Z,52.01
2019-03-18T19:11:14.578Z,52.12
2019-03-18T19:13:43.156Z,52.20
2019-03-18T19:16:11.202Z,52.27
2019-03-18T19:18:39.215Z,52.34
2019-03-18T19:21:07.295Z,52.40
2019-03-18T19:23:38.028Z,52.49
2019-03-18T19:26:05.791Z,52.56
2019-03-18T19:28:33.863Z,52.62
2019-03-18T19:31:02.031Z,52.65
2019-03-18T19:33:30.237Z,52.76
2019-03-18T19:35:58.736Z,52.82
2019-03-18T19:38:26.823Z,52.86
2019-03-18T19:40:55.705Z,52.90
2019-03-18T19:43:23.886Z,52.90
2019-03-18T19:45:52.049Z,52.95
2019-03-18T19:48:20.153Z,53.00
2019-03-18T19:50:48.074Z,53.05
2019-03-18T19:53:16.195Z,53.09
2019-03-18T19:55:47.396Z,53.12
2019-03-18T19:58:15.746Z,53.18
2019-03-18T20:00:43.787Z,53.23
2019-03-18T20:03:11.925Z,53.28
2019-03-18T20:05:39.992Z,53.32
2019-03-18T20:08:08.573Z,53.36
2019-03-18T20:10:36.561Z,53.42
2019-03-18T20:13:05.099Z,53.46
2019-03-18T20:15:33.186Z,53.48
2019-03-18T20:18:01.449Z,53.52
2019-03-18T20:20:29.512Z,53.59
2019-03-18T20:22:57.984Z,53.63
2019-03-18T20:25:26.014Z,53.67
2019-03-18T20:27:54.264Z,53.73
2019-03-18T20:30:22.636Z,53.81
2019-03-18T20:32:51.815Z,53.88
2019-03-18T20:35:19.924Z,53.92
2019-03-18T20:37:48.469Z,53.95
2019-03-18T20:40:17.222Z,53.98
2019-03-18T20:42:45.417Z,54.03
2019-03-18T20:45:14.045Z,54.05
2019-03-18T20:47:42.185Z,54.10
2019-03-18T20:50:12.299Z,54.11
2019-03-18T20:52:40.548Z,54.14
2019-03-18T20:55:09.569Z,54.19
2019-03-18T20:57:37.596Z,54.21
2019-03-18T21:00:06.927Z,54.23
2019-03-18T21:02:35.323Z,54.27
2019-03-18T21:05:04.169Z,54.31
2019-03-18T21:07:32.509Z,54.34
2019-03-18T21:10:00.606Z,54.36
2019-03-18T21:12:28.894Z,54.37
2019-03-18T21:14:58.015Z,54.41
2019-03-18T21:17:26.051Z,54.45
2019-03-18T21:19:54.141Z,54.49
2019-03-18T21:22:22.743Z,54.53
2019-03-18T21:24:50.851Z,54.53
2019-03-18T21:27:19.085Z,54.57
2019-03-18T21:29:47.370Z,54.62
2019-03-18T21:32:15.527Z,54.65
2019-03-18T21:34:43.648Z,54.67
2019-03-18T21:37:11.694Z,54.68
2019-03-18T21:39:39.919Z,54.70
2019-03-18T21:42:08.020Z,54.73
2019-03-18T21:44:36.077Z,54.77
2019-03-18T21:47:04.131Z,54.77
2019-03-18T21:49:32.161Z,54.78
2019-03-18T21:52:00.221Z,54.79
2019-03-18T21:54:34.109Z,54.79
2019-03-18T21:56:58.474Z,54.85
2019-03-18T21:59:26.529Z,54.86
2019-03-18T22:01:54.605Z,54.89
2019-03-18T22:04:22.664Z,54.90
2019-03-18T22:06:50.696Z,54.91
2019-03-18T22:09:19.026Z,54.96
2019-03-18T22:11:47.363Z,54.95
2019-03-18T22:14:15.422Z,55.03
2019-03-18T22:16:43.467Z,55.06
2019-03-18T22:19:11.479Z,55.07
2019-03-18T22:21:39.610Z,55.09
2019-03-18T22:24:07.682Z,55.10
2019-03-18T22:26:36.105Z,55.13
2019-03-18T22:29:05.215Z,55.16
2019-03-18T22:31:33.236Z,55.16
2019-03-18T22:34:01.809Z,55.20
2019-03-18T22:36:30.182Z,55.25
2019-03-18T22:38:58.516Z,55.29
2019-03-18T22:41:26.794Z,55.30
2019-03-18T22:43:54.871Z,55.31
2019-03-18T22:46:22.919Z,55.38
2019-03-18T22:48:51.078Z,55.41
2019-03-18T22:51:19.126Z,55.48
2019-03-18T22:53:47.595Z,55.46
2019-03-18T22:56:15.648Z,55.48
2019-03-18T22:58:44.116Z,55.54
2019-03-18T23:01:14.954Z,55.59
2019-03-18T23:03:43.086Z,55.62
2019-03-18T23:06:11.113Z,55.65
2019-03-18T23:08:39.197Z,55.65
2019-03-18T23:11:07.209Z,55.69
2019-03-18T23:13:35.256Z,55.72
2019-03-18T23:16:03.622Z,55.71
2019-03-18T23:18:31.987Z,55.72
2019-03-18T23:21:00.025Z,55.74
2019-03-18T23:23:28.203Z,55.77
2019-03-18T23:25:56.343Z,55.81
2019-03-18T23:28:24.410Z,55.84
2019-03-18T23:30:52.566Z,55.85
2019-03-18T23:33:20.920Z,55.90
2019-03-18T23:35:48.979Z,55.93
2019-03-18T23:38:17.067Z,55.93
2019-03-18T23:40:46.232Z,55.92
2019-03-18T23:43:14.321Z,55.91
2019-03-18T23:45:42.425Z,55.91
2019-03-18T23:48:10.572Z,55.93
2019-03-18T23:50:39.142Z,55.94
2019-03-18T23:53:07.546Z,55.96
2019-03-18T23:55:35.632Z,55.99
2019-03-18T23:58:03.976Z,56.01
